Share

Debrecen, Magyarország

Debrecen (IHAJDBIH5) Elev 407 ft | 47.54 °N, 21.63 °E | Change Station

Current weather conditions updated 44 seconds ago

Borús
Borús
45.1 °F
Hőérzet 42 °F
N
6.0
Szél: változó Szél: from északkeleti
Gusts 12.0 mph
Napkelte 5:41 AM
Napnyugta 7:25 PM
Hold Fogyó hold

Előrejelzés: ma melegebb lesz mint tegnap.

Légnyomás 29.95 hvlyk.
Látótávolság 6.2 mérföld
Felhők Kevés 5000 ft
Hőérzet 42 °F
Harmatpont 33 °F
Páratartalom 62%
Rainfall 0.00 hvlyk.
Hóréteg vastagsága Not available.
UV 0 out of 16
Pollen Not available.
A levegő minősége Not available.
Flu Activity Not available.
METAR LROD 170330Z 04010KT 9999 -SHRA FEW050CB 08/05 Q1014

More Conditions Fewer Conditions

Légnyomás 29.95 hvlyk.
Látótávolság 6.2 mérföld
Felhők Kevés 5000 ft
Hőérzet 42 °F
Harmatpont 33 °F
Páratartalom 62%
Rainfall 0.00 hvlyk.
Hóréteg vastagsága Not available.
UV 0 out of 16
Pollen Not available.
A levegő minősége Not available.
Flu Activity Not available.
METAR LROD 170330Z 04010KT 9999 -SHRA FEW050CB 08/05 Q1014

More Conditions Fewer Conditions

10-Day Forecast

Almanac

Csillagászat

Apr. 17, 2014 Kel Nyugszik
Tényleges idő 5:41 AM CEST 7:25 PM CEST
Civil alkony 5:09 AM CEST 7:58 PM CEST
Tengerészeti alkony 4:29 AM CEST 8:37 PM CEST
Csillagászati alkony 3:46 AM CEST 9:21 PM CEST
Hold 10:00 PM CEST 6:52 AM CEST
Látható fény időtartama 14h 48m
A nap hossza
13h 43m
Tomorrow will be 3m 15s longer.
Fogyó hold, 96% of the Moon is Illuminated
Ma
Fogyó hold
Ápr 22
utolsó negyed
Ápr 29
Új
May 6
első negyed
May 14
telihold

Yesterday's Extremes

Country Highs Country Lows

Community

  • symphony in blue....
    symphony in blue....
  • Dawn Surprise
    Dawn Surprise
  • Yucca delight
    Yucca delight
  • Sunset inside of the Ocean
    Sunset inside of the Ocean
  • Lunar eclipse 15 April 2014
    Lunar eclipse 15 April 2014

WunderPhotos

Upload Photos

1,701,847 Fotók feltöltve.

WunderBlogs® & News

Nearby

A levegő minősége

Not available.

Hóréteg vastagsága

Not available.

Coastal Water Temperatures

Hely Hőmérséklet
No Stations Reporting

Earthquake Activity

város Distance Mag. Time & Date
No recent earthquake activity has been reported nearby.
Minimum magnitude displayed is 2.5.

Közeli meteorológiai állomások

Station Location Hőm. Hőérzet Harmatpont Páratartalom Szél: Precip. Elev Frissítve Type
Debrecen, Debrecen 45.1 °F 42 °F 33 °F 62% északkeleti    6.0 mph 0.00 hvlyk. / hr 407 ft 6:00 AM CEST Normal
Derecske, Derecske 45.6 °F 41 °F 38 °F 76% észak-északkeleti    10.0 mph 0.00 hvlyk. / hr 318 ft 5:56 AM CEST Normal

Show More Stations Show Fewer Stations

What do you think?

We're not finished. Please let us know what you like, what you don't like, and what you are still missing.